createdAt,value
2018-02-23T00:00:35.706Z,4.28
2018-02-23T00:03:03.880Z,4.32
2018-02-23T00:05:32.049Z,4.20
2018-02-23T00:08:00.205Z,4.93
2018-02-23T00:10:28.343Z,4.70
2018-02-23T00:12:57.260Z,4.62
2018-02-23T00:15:25.413Z,5.22
2018-02-23T00:17:54.443Z,5.00
2018-02-23T00:20:22.639Z,5.30
2018-02-23T00:22:50.873Z,5.05
2018-02-23T00:25:19.045Z,4.72
2018-02-23T00:27:47.294Z,5.28
2018-02-23T00:30:16.204Z,6.00
2018-02-23T00:32:44.351Z,5.20
2018-02-23T00:35:13.370Z,5.47
2018-02-23T00:37:41.527Z,4.75
2018-02-23T00:40:09.708Z,5.47
2018-02-23T00:42:37.854Z,4.95
2018-02-23T00:45:06.036Z,6.03
2018-02-23T00:47:34.328Z,6.00
2018-02-23T00:50:02.490Z,5.57
2018-02-23T00:52:31.469Z,5.75
2018-02-23T00:55:00.398Z,5.75
2018-02-23T00:57:28.564Z,5.40
2018-02-23T00:59:56.726Z,5.53
2018-02-23T01:02:24.917Z,6.05
2018-02-23T01:04:53.175Z,5.60
2018-02-23T01:07:21.446Z,6.68
2018-02-23T01:09:50.430Z,5.62
2018-02-23T01:12:19.406Z,5.45
2018-02-23T01:14:48.354Z,6.10
2018-02-23T01:17:16.502Z,5.75
2018-02-23T01:19:44.683Z,7.00
2018-02-23T01:22:12.822Z,6.57
2018-02-23T01:24:41.774Z,5.95
2018-02-23T01:27:09.948Z,6.37
2018-02-23T01:29:38.102Z,8.20
2018-02-23T01:32:06.256Z,7.03
2018-02-23T01:34:34.393Z,6.97
2018-02-23T01:37:02.576Z,6.22
2018-02-23T01:39:30.794Z,6.80
2018-02-23T01:41:58.968Z,7.80
2018-02-23T01:44:27.112Z,7.45
2018-02-23T01:46:56.067Z,7.22
2018-02-23T01:49:24.243Z,7.43
2018-02-23T01:51:52.538Z,7.47
2018-02-23T01:54:21.456Z,8.15
2018-02-23T01:56:49.606Z,9.30
2018-02-23T01:59:18.550Z,8.52
2018-02-23T02:01:46.705Z,9.35
2018-02-23T02:04:14.850Z,9.95
2018-02-23T02:06:43.772Z,9.30
2018-02-23T02:09:11.918Z,10.57
2018-02-23T02:11:40.395Z,10.23
2018-02-23T02:14:08.565Z,11.10
2018-02-23T02:16:36.723Z,10.00
2018-02-23T02:19:05.699Z,11.95
2018-02-23T02:21:33.854Z,10.80
2018-02-23T02:24:02.026Z,11.68
2018-02-23T02:26:30.206Z,11.80
2018-02-23T02:28:58.383Z,12.35
2018-02-23T02:31:26.527Z,11.25
2018-02-23T02:33:54.696Z,10.48
2018-02-23T02:36:22.902Z,11.65
2018-02-23T02:38:51.058Z,12.43
2018-02-23T02:41:19.208Z,11.75
2018-02-23T02:43:48.199Z,12.68
2018-02-23T02:46:16.443Z,12.13
2018-02-23T02:48:45.367Z,12.02
2018-02-23T02:51:13.574Z,12.82
2018-02-23T02:53:41.735Z,12.30
2018-02-23T02:56:09.893Z,11.98
2018-02-23T02:58:38.099Z,12.52
2018-02-23T03:01:06.320Z,12.65
2018-02-23T03:03:34.545Z,11.90
2018-02-23T03:06:02.839Z,12.73
2018-02-23T03:08:30.927Z,12.75
2018-02-23T03:10:59.845Z,12.10
2018-02-23T03:13:27.994Z,12.80
2018-02-23T03:15:56.180Z,12.98
2018-02-23T03:18:24.333Z,13.23
2018-02-23T03:20:53.328Z,15.10
2018-02-23T03:23:22.398Z,14.23
2018-02-23T03:25:50.609Z,12.43
2018-02-23T03:28:18.973Z,13.57
2018-02-23T03:30:47.892Z,13.07
2018-02-23T03:33:16.039Z,13.60
2018-02-23T03:35:44.951Z,13.35
2018-02-23T03:38:13.089Z,13.27
2018-02-23T03:40:42.014Z,11.10
2018-02-23T03:43:10.175Z,13.38
2018-02-23T03:45:38.373Z,12.10
2018-02-23T03:48:06.522Z,12.68
2018-02-23T03:50:34.677Z,12.10
2018-02-23T03:53:03.603Z,11.23
2018-02-23T03:55:31.778Z,12.07
2018-02-23T03:57:59.940Z,11.30
2018-02-23T04:00:28.138Z,11.88
2018-02-23T04:02:56.293Z,12.13
2018-02-23T04:05:25.266Z,10.98
2018-02-23T04:07:53.455Z,10.57
2018-02-23T04:10:21.798Z,10.30
2018-02-23T04:12:50.751Z,9.95
2018-02-23T04:15:18.996Z,10.70
2018-02-23T04:17:47.149Z,10.70
2018-02-23T04:20:15.332Z,10.05
2018-02-23T04:22:43.493Z,10.10
2018-02-23T04:25:11.711Z,8.65
2018-02-23T04:27:39.866Z,8.80
2018-02-23T04:30:08.013Z,8.95
2018-02-23T04:32:36.203Z,9.23
2018-02-23T04:35:04.387Z,8.05
2018-02-23T04:37:32.660Z,6.97
2018-02-23T04:40:00.894Z,8.20
2018-02-23T04:42:29.906Z,7.60
2018-02-23T04:44:58.098Z,7.85
2018-02-23T04:47:26.245Z,6.90
2018-02-23T04:49:55.233Z,6.60
2018-02-23T04:52:24.133Z,7.55
2018-02-23T04:54:52.330Z,7.00
2018-02-23T04:57:20.478Z,6.82
2018-02-23T04:59:48.622Z,7.32
2018-02-23T05:02:16.794Z,6.97
2018-02-23T05:04:46.572Z,6.12
2018-02-23T05:07:14.723Z,5.80
2018-02-23T05:09:42.889Z,6.78
2018-02-23T05:12:11.086Z,6.85
2018-02-23T05:14:39.258Z,6.68
2018-02-23T05:17:07.475Z,6.68
2018-02-23T05:19:36.426Z,7.00
2018-02-23T05:22:04.563Z,7.20
2018-02-23T05:24:32.713Z,6.28
2018-02-23T05:27:01.702Z,6.53
2018-02-23T05:29:30.688Z,6.87
2018-02-23T05:31:58.925Z,6.30
2018-02-23T05:34:27.175Z,6.15
2018-02-23T05:36:55.382Z,6.37
2018-02-23T05:39:23.663Z,6.00
2018-02-23T05:41:51.810Z,5.62
2018-02-23T05:44:19.953Z,6.37
2018-02-23T05:46:49.022Z,5.95
2018-02-23T05:49:17.180Z,5.60
2018-02-23T05:51:45.330Z,5.40
2018-02-23T05:54:13.494Z,5.15
2018-02-23T05:56:41.677Z,5.30
2018-02-23T05:59:09.837Z,5.97
2018-02-23T06:01:38.002Z,4.93
2018-02-23T06:04:06.166Z,5.53
2018-02-23T06:06:34.352Z,5.18
2018-02-23T06:09:02.535Z,5.45
2018-02-23T06:11:30.716Z,6.25
2018-02-23T06:13:59.701Z,6.10
2018-02-23T06:16:27.854Z,6.28
2018-02-23T06:18:58.483Z,6.43
2018-02-23T06:21:26.676Z,6.22
2018-02-23T06:23:54.914Z,6.90
2018-02-23T06:26:23.178Z,7.05
2018-02-23T06:28:52.129Z,6.95
2018-02-23T06:31:20.366Z,7.40
2018-02-23T06:33:48.598Z,6.70
2018-02-23T06:36:16.856Z,6.50
2018-02-23T06:38:45.039Z,6.37
2018-02-23T06:41:13.404Z,7.12
2018-02-23T06:43:41.551Z,7.10
2018-02-23T06:46:09.691Z,6.47
2018-02-23T06:48:38.632Z,6.57
2018-02-23T06:51:06.841Z,6.50
2018-02-23T06:53:35.047Z,7.37
2018-02-23T06:56:03.187Z,6.47
2018-02-23T06:58:31.372Z,5.90
2018-02-23T07:01:00.320Z,6.62
2018-02-23T07:03:28.494Z,6.60
2018-02-23T07:05:56.649Z,6.00
2018-02-23T07:08:24.824Z,6.25
2018-02-23T07:10:53.061Z,5.68
2018-02-23T07:13:21.223Z,5.70
2018-02-23T07:15:50.189Z,5.43
2018-02-23T07:18:18.335Z,6.62
2018-02-23T07:20:46.492Z,6.40
2018-02-23T07:23:15.503Z,6.03
2018-02-23T07:25:44.594Z,5.37
2018-02-23T07:28:12.794Z,6.15
2018-02-23T07:30:40.970Z,6.87
2018-02-23T07:33:09.147Z,5.37
2018-02-23T07:35:37.314Z,5.72
2018-02-23T07:38:05.505Z,5.68
2018-02-23T07:40:33.665Z,5.62
2018-02-23T07:43:01.823Z,5.37
2018-02-23T07:45:30.170Z,5.55
2018-02-23T07:47:58.612Z,5.62
2018-02-23T07:50:27.037Z,5.70
2018-02-23T07:55:29.806Z,5.00
2018-02-23T07:57:58.912Z,6.10
2018-02-23T08:00:27.956Z,5.47
2018-02-23T08:02:56.160Z,6.87
2018-02-23T08:05:25.199Z,6.65
2018-02-23T08:07:53.452Z,6.05
2018-02-23T08:10:21.703Z,6.78
2018-02-23T08:12:50.608Z,5.45
2018-02-23T08:15:18.859Z,6.12
2018-02-23T08:17:47.012Z,6.50
2018-02-23T08:20:15.251Z,6.40
2018-02-23T08:22:43.406Z,6.57
2018-02-23T08:25:11.620Z,6.12
2018-02-23T08:27:39.813Z,6.22
2018-02-23T08:30:08.111Z,6.85
2018-02-23T08:32:36.289Z,6.32
2018-02-23T08:35:05.296Z,5.93
2018-02-23T08:37:33.544Z,6.53
2018-02-23T08:40:01.789Z,6.10
2018-02-23T08:42:30.012Z,6.65
2018-02-23T08:44:58.324Z,5.80
2018-02-23T08:47:26.511Z,6.37
2018-02-23T08:49:54.743Z,7.55
2018-02-23T08:52:22.888Z,6.45
2018-02-23T08:54:51.823Z,6.43
2018-02-23T08:57:19.998Z,6.60
2018-02-23T08:59:48.162Z,7.40
2018-02-23T09:02:16.339Z,6.95
2018-02-23T09:04:44.549Z,7.47
2018-02-23T09:07:12.720Z,7.70
2018-02-23T09:09:41.171Z,7.95
2018-02-23T09:12:10.198Z,8.02
2018-02-23T09:14:38.422Z,7.32
2018-02-23T09:17:06.562Z,8.52
2018-02-23T09:19:35.492Z,8.15
2018-02-23T09:22:03.670Z,9.30
2018-02-23T09:24:31.914Z,9.30
2018-02-23T09:27:00.876Z,10.73
2018-02-23T09:29:29.079Z,8.82
2018-02-23T09:31:58.181Z,9.57
2018-02-23T09:34:38.156Z,10.70
2018-02-23T09:37:06.389Z,11.63
2018-02-23T09:39:35.435Z,10.63
2018-02-23T09:42:03.745Z,10.02
2018-02-23T09:44:33.596Z,10.57
2018-02-23T09:47:01.796Z,11.20
2018-02-23T09:49:30.008Z,11.18
2018-02-23T09:51:58.404Z,10.60
2018-02-23T09:54:30.666Z,11.48
2018-02-23T09:56:59.101Z,11.18
2018-02-23T09:59:32.152Z,12.50
2018-02-23T10:02:08.834Z,11.70
2018-02-23T10:04:38.653Z,11.10
2018-02-23T10:07:07.799Z,12.30
2018-02-23T10:09:55.783Z,11.35
2018-02-23T10:12:27.592Z,11.68
2018-02-23T10:15:01.837Z,12.15
2018-02-23T10:23:26.256Z,11.68
2018-02-23T10:26:07.065Z,11.10
2018-02-23T10:28:41.682Z,12.80
2018-02-23T10:31:17.207Z,12.45
2018-02-23T10:37:06.689Z,12.00
2018-02-23T10:39:47.942Z,12.50
2018-02-23T10:42:19.473Z,11.10
2018-02-23T10:44:53.513Z,12.75
2018-02-23T10:47:22.648Z,11.77
2018-02-23T10:50:31.597Z,11.90
2018-02-23T10:53:06.285Z,11.52
2018-02-23T10:55:50.697Z,12.00
2018-02-23T10:58:23.437Z,11.20
2018-02-23T11:01:08.355Z,12.13
2018-02-23T11:07:10.988Z,12.15
2018-02-23T11:09:41.937Z,12.07
2018-02-23T11:15:04.130Z,11.75
2018-02-23T11:17:32.728Z,12.70
2018-02-23T11:23:42.455Z,12.30
2018-02-23T11:26:25.571Z,13.80
2018-02-23T11:28:53.935Z,13.38
2018-02-23T11:31:27.618Z,15.15
2018-02-23T11:37:10.269Z,15.07
2018-02-23T11:53:43.247Z,14.30
2018-02-23T11:56:11.521Z,13.77
2018-02-23T11:58:40.408Z,14.82
2018-02-23T12:01:10.614Z,14.15
2018-02-23T12:03:40.426Z,14.18
2018-02-23T12:06:15.208Z,12.88
2018-02-23T12:08:44.245Z,14.48
2018-02-23T12:11:12.558Z,15.07
2018-02-23T12:16:21.786Z,14.68
2018-02-23T12:18:50.805Z,14.30
2018-02-23T12:21:19.968Z,14.02
2018-02-23T12:23:49.389Z,13.45
2018-02-23T12:26:17.646Z,14.25
2018-02-23T12:28:46.573Z,16.35
2018-02-23T12:31:15.876Z,15.02
2018-02-23T12:33:44.114Z,15.35
2018-02-23T12:36:12.306Z,13.30
2018-02-23T12:38:40.557Z,15.15
2018-02-23T12:41:09.739Z,15.18
2018-02-23T12:43:37.944Z,15.02
2018-02-23T12:46:06.230Z,14.98
2018-02-23T12:48:34.595Z,15.90
2018-02-23T12:51:02.799Z,14.80
2018-02-23T12:53:31.900Z,13.95
2018-02-23T12:56:01.281Z,14.10
2018-02-23T12:58:29.490Z,14.13
2018-02-23T13:00:58.493Z,14.50
2018-02-23T13:03:29.702Z,13.70
2018-02-23T13:05:58.841Z,12.85
2018-02-23T13:08:28.268Z,13.73
2018-02-23T13:10:57.626Z,13.95
2018-02-23T13:13:27.344Z,13.75
2018-02-23T13:15:57.340Z,14.00
2018-02-23T13:18:25.489Z,13.13
2018-02-23T13:20:54.626Z,12.52
2018-02-23T13:23:23.990Z,13.18
2018-02-23T13:25:53.175Z,14.05
2018-02-23T13:28:26.700Z,13.27
2018-02-23T13:30:57.211Z,13.20
2018-02-23T13:33:26.556Z,12.85
2018-02-23T13:35:56.949Z,12.70
2018-02-23T13:38:25.210Z,14.30
2018-02-23T13:41:00.527Z,13.52
2018-02-23T13:43:30.912Z,13.55
2018-02-23T13:46:07.998Z,13.00
2018-02-23T13:48:36.588Z,13.07
2018-02-23T13:51:06.794Z,13.35
2018-02-23T13:53:41.410Z,13.25
2018-02-23T13:56:13.416Z,14.00
2018-02-23T13:58:42.861Z,14.32
2018-02-23T14:01:12.984Z,14.07
2018-02-23T14:03:45.148Z,13.38
2018-02-23T14:06:17.786Z,14.10
2018-02-23T14:08:48.802Z,13.80
2018-02-23T14:11:19.146Z,13.18
2018-02-23T14:13:49.978Z,13.05
2018-02-23T14:16:18.241Z,13.60
2018-02-23T14:18:46.478Z,12.30
2018-02-23T14:21:14.889Z,13.70
2018-02-23T14:23:43.305Z,13.02
2018-02-23T14:26:12.433Z,13.88
2018-02-23T14:28:41.771Z,12.68
2018-02-23T14:31:09.971Z,12.88
2018-02-23T14:33:38.131Z,13.07
2018-02-23T14:36:06.543Z,12.55
2018-02-23T14:38:34.739Z,12.93
2018-02-23T14:41:03.056Z,12.93
2018-02-23T14:43:31.925Z,13.15
2018-02-23T14:46:00.911Z,12.63
2018-02-23T14:51:29.150Z,12.20
2018-02-23T14:57:09.418Z,13.13
2018-02-23T14:59:38.542Z,11.70
2018-02-23T15:02:06.973Z,11.73
2018-02-23T15:04:35.309Z,11.77
2018-02-23T15:07:04.354Z,11.25
2018-02-23T15:09:33.970Z,12.00
2018-02-23T15:12:02.217Z,11.85
2018-02-23T15:14:31.213Z,12.00
2018-02-23T15:17:00.197Z,11.55
2018-02-23T15:19:29.212Z,11.95
2018-02-23T15:21:57.564Z,12.55
2018-02-23T15:24:25.790Z,12.35
2018-02-23T15:26:53.985Z,12.68
2018-02-23T15:29:22.182Z,10.93
2018-02-23T15:32:09.068Z,10.80
2018-02-23T15:34:38.464Z,12.70
2018-02-23T15:37:06.765Z,12.27
2018-02-23T15:39:38.992Z,10.90
2018-02-23T15:42:07.434Z,11.80
2018-02-23T15:44:35.683Z,12.77
2018-02-23T15:47:04.704Z,11.82
2018-02-23T15:49:34.513Z,11.88
2018-02-23T15:52:04.073Z,12.10
2018-02-23T15:54:34.798Z,12.25
2018-02-23T15:57:03.001Z,12.77
2018-02-23T15:59:32.015Z,12.43
2018-02-23T16:02:00.211Z,13.15
2018-02-23T16:04:32.048Z,13.43
2018-02-23T16:07:00.202Z,12.43
2018-02-23T16:09:29.125Z,13.70
2018-02-23T16:11:57.328Z,14.13
2018-02-23T16:14:25.491Z,12.85
2018-02-23T16:16:53.644Z,12.95
2018-02-23T16:19:22.644Z,12.05
2018-02-23T16:21:50.860Z,13.02
2018-02-23T16:24:22.854Z,13.18
2018-02-23T16:26:51.207Z,12.30
2018-02-23T16:29:20.194Z,13.52
2018-02-23T16:31:49.219Z,12.60
2018-02-23T16:34:18.577Z,12.18
2018-02-23T16:36:48.656Z,12.00
2018-02-23T16:39:16.880Z,12.13
2018-02-23T16:42:03.613Z,12.37
2018-02-23T16:44:32.880Z,12.00
2018-02-23T16:47:01.082Z,12.70
2018-02-23T16:49:29.273Z,11.43
2018-02-23T16:55:05.885Z,11.12
2018-02-23T16:57:39.217Z,10.77
2018-02-23T17:00:13.554Z,10.60
2018-02-23T17:02:41.925Z,10.55
2018-02-23T17:05:13.174Z,10.05
2018-02-23T17:07:42.204Z,9.88
2018-02-23T17:10:12.959Z,10.00
2018-02-23T17:12:41.350Z,10.70
2018-02-23T17:15:09.590Z,10.20
2018-02-23T17:17:38.869Z,9.70
2018-02-23T17:20:11.488Z,10.15
2018-02-23T17:22:39.679Z,8.32
2018-02-23T17:25:07.847Z,9.02
2018-02-23T17:27:36.018Z,9.27
2018-02-23T17:30:04.350Z,9.50
2018-02-23T17:32:32.524Z,8.20
2018-02-23T17:35:00.716Z,7.85
2018-02-23T17:37:28.872Z,8.60
2018-02-23T17:39:58.198Z,8.48
2018-02-23T17:42:26.453Z,7.78
2018-02-23T17:44:56.681Z,8.00
2018-02-23T17:47:24.867Z,7.85
2018-02-23T17:49:53.055Z,6.95
2018-02-23T17:52:21.280Z,7.15
2018-02-23T17:54:49.474Z,7.25
2018-02-23T17:57:18.390Z,7.47
2018-02-23T17:59:46.587Z,8.20
2018-02-23T18:02:15.580Z,7.18
2018-02-23T18:04:44.615Z,7.25
2018-02-23T18:07:12.867Z,7.15
2018-02-23T18:09:41.094Z,7.60
2018-02-23T18:12:09.364Z,7.00
2018-02-23T18:14:37.608Z,6.82
2018-02-23T18:17:05.786Z,7.62
2018-02-23T18:19:34.770Z,7.65
2018-02-23T18:22:02.915Z,7.20
2018-02-23T18:24:31.832Z,7.40
2018-02-23T18:27:00.000Z,7.57
2018-02-23T18:29:28.235Z,7.50
2018-02-23T18:31:56.399Z,7.22
2018-02-23T18:34:24.590Z,7.50
2018-02-23T18:36:53.508Z,7.50
2018-02-23T18:39:21.694Z,7.45
2018-02-23T18:41:49.874Z,7.10
2018-02-23T18:44:18.044Z,7.32
2018-02-23T18:46:46.209Z,7.40
2018-02-23T18:49:14.489Z,7.15
2018-02-23T18:51:42.697Z,7.47
2018-02-23T18:54:10.881Z,8.05
2018-02-23T18:56:39.058Z,8.20
2018-02-23T18:59:07.264Z,8.98
2018-02-23T19:01:35.416Z,8.30
2018-02-23T19:04:04.383Z,7.22
2018-02-23T19:06:32.710Z,8.23
2018-02-23T19:09:00.929Z,8.02
2018-02-23T19:11:29.149Z,7.50
2018-02-23T19:13:57.312Z,7.50
2018-02-23T19:16:27.338Z,8.05
2018-02-23T19:18:56.330Z,7.62
2018-02-23T19:21:24.632Z,7.05
2018-02-23T19:23:52.958Z,7.80
2018-02-23T19:26:21.923Z,7.75
2018-02-23T19:28:50.079Z,7.00
2018-02-23T19:31:18.294Z,7.75
2018-02-23T19:33:46.455Z,8.05
2018-02-23T19:36:14.630Z,8.27
2018-02-23T19:38:42.798Z,8.02
2018-02-23T19:41:11.007Z,8.73
2018-02-23T19:43:39.261Z,7.47
2018-02-23T19:46:08.115Z,7.28
2018-02-23T19:48:36.308Z,7.53
2018-02-23T19:51:04.475Z,7.37
2018-02-23T19:53:32.660Z,8.15
2018-02-23T19:56:00.831Z,7.70
2018-02-23T19:58:29.045Z,7.57
2018-02-23T20:00:57.202Z,7.57
2018-02-23T20:03:26.135Z,8.77
2018-02-23T20:05:55.131Z,6.47
2018-02-23T20:08:23.286Z,7.10
2018-02-23T20:10:51.451Z,7.55
2018-02-23T20:13:19.611Z,7.35
2018-02-23T20:15:48.556Z,7.68
2018-02-23T20:18:16.730Z,7.32
2018-02-23T20:20:44.920Z,7.62
2018-02-23T20:23:13.158Z,7.47
2018-02-23T20:25:41.395Z,7.43
2018-02-23T20:28:10.362Z,8.00
2018-02-23T20:30:38.565Z,7.47
2018-02-23T20:33:06.735Z,7.37
2018-02-23T20:35:34.895Z,7.45
2018-02-23T20:38:03.862Z,7.75
2018-02-23T20:40:32.134Z,8.02
2018-02-23T20:43:00.475Z,7.75
2018-02-23T20:45:29.462Z,7.37
2018-02-23T20:47:57.595Z,7.70
2018-02-23T20:50:25.788Z,7.30
2018-02-23T20:52:53.981Z,7.82
2018-02-23T20:55:22.201Z,7.95
2018-02-23T20:57:50.666Z,7.55
2018-02-23T21:00:18.900Z,7.95
2018-02-23T21:02:47.063Z,7.90
2018-02-23T21:05:16.011Z,7.43
2018-02-23T21:07:44.227Z,7.40
2018-02-23T21:10:13.327Z,8.65
2018-02-23T21:12:41.543Z,8.73
2018-02-23T21:15:09.762Z,9.07
2018-02-23T21:17:38.686Z,8.25
2018-02-23T21:20:07.654Z,8.55
2018-02-23T21:22:36.588Z,8.45
2018-02-23T21:25:04.760Z,8.43
2018-02-23T21:27:32.929Z,8.60
2018-02-23T21:30:01.121Z,9.80
2018-02-23T21:32:29.298Z,8.70
2018-02-23T21:34:57.437Z,9.52
2018-02-23T21:37:25.605Z,9.60
2018-02-23T21:39:53.764Z,8.55
2018-02-23T21:42:21.937Z,9.30
2018-02-23T21:44:50.099Z,7.95
2018-02-23T21:47:18.283Z,10.27
2018-02-23T21:49:46.680Z,8.90
2018-02-23T21:52:15.772Z,8.65
2018-02-23T21:54:43.978Z,8.68
2018-02-23T21:57:12.153Z,9.15
2018-02-23T21:59:40.369Z,8.48
2018-02-23T22:02:08.550Z,8.00
2018-02-23T22:04:36.718Z,7.50
2018-02-23T22:07:04.886Z,9.02
2018-02-23T22:09:33.022Z,9.15
2018-02-23T22:12:02.269Z,8.55
2018-02-23T22:14:30.437Z,8.95
2018-02-23T22:16:58.591Z,8.60
2018-02-23T22:19:27.521Z,8.07
2018-02-23T22:21:55.673Z,8.35
2018-02-23T22:24:23.916Z,8.60
2018-02-23T22:26:53.711Z,9.85
2018-02-23T22:29:21.890Z,8.73
2018-02-23T22:31:50.040Z,7.75
2018-02-23T22:34:18.202Z,7.75
2018-02-23T22:36:47.139Z,8.63
2018-02-23T22:39:16.074Z,8.10
2018-02-23T22:41:44.264Z,7.28
2018-02-23T22:44:12.431Z,8.35
2018-02-23T22:46:40.621Z,7.70
2018-02-23T22:49:08.791Z,8.45
2018-02-23T22:51:40.803Z,7.57
2018-02-23T22:54:09.031Z,8.77
2018-02-23T22:56:43.252Z,7.95
2018-02-23T22:59:11.433Z,7.87
2018-02-23T23:01:39.604Z,7.60
2018-02-23T23:04:07.776Z,7.43
2018-02-23T23:06:35.991Z,8.25
2018-02-23T23:09:04.144Z,8.80
2018-02-23T23:11:33.068Z,8.10
2018-02-23T23:14:01.211Z,8.38
2018-02-23T23:16:30.138Z,8.00
2018-02-23T23:18:58.302Z,8.13
2018-02-23T23:21:26.441Z,8.68
2018-02-23T23:23:55.385Z,7.22
2018-02-23T23:26:23.859Z,7.90
2018-02-23T23:28:52.054Z,8.27
2018-02-23T23:31:24.817Z,8.32
2018-02-23T23:33:52.997Z,8.90
2018-02-23T23:36:21.200Z,7.55
2018-02-23T23:38:49.370Z,7.80
2018-02-23T23:41:17.548Z,8.15
2018-02-23T23:43:46.734Z,8.52
2018-02-23T23:46:15.068Z,8.25
2018-02-23T23:48:43.282Z,8.50
2018-02-23T23:51:11.458Z,8.20
2018-02-23T23:53:39.716Z,8.00
2018-02-23T23:56:07.901Z,8.60
2018-02-23T23:58:36.096Z,7.90
